Time;durP1;ratioP1;P1;durP2;ratioP2;P2;SDS_P1;SDS_P2;PMS_P1;PMS_P2;Temp;Humidity;BMP_temperature;BMP_pressure;BME280_temperature;BME280_humidity;BME280_pressure;Samples;Min_cycle;Max_cycle;Signal;HPM_P1;HPM_P2
2024/02/12 00:00:50;;;;;;;1.80;1.00;;;;;;;8.09;94.64;94725.55;108897;1272;22561;-72
2024/02/12 00:03:44;;;;;;;1.30;1.10;;;;;;;8.12;94.64;94732.48;108872;1272;22524;-73
2024/02/12 00:06:17;;;;;;;1.80;1.00;;;;;;;8.21;94.55;94729.42;108890;1264;22553;-72
2024/02/12 00:08:51;;;;;;;2.90;1.30;;;;;;;8.28;94.19;94730.60;108826;1251;22500;-71
2024/02/12 00:11:29;;;;;;;2.70;1.60;;;;;;;8.30;93.81;94734.59;108836;1272;24145;-72
2024/02/12 00:14:04;;;;;;;1.80;1.10;;;;;;;8.29;93.62;94735.27;108858;1272;22476;-72
2024/02/12 00:16:38;;;;;;;1.20;0.80;;;;;;;8.26;93.32;94738.39;108895;1272;25297;-72
2024/02/12 00:19:09;;;;;;;1.20;0.70;;;;;;;8.28;92.80;94742.52;108861;1272;22515;-72
2024/02/12 00:21:48;;;;;;;1.70;0.80;;;;;;;8.30;92.00;94747.10;108861;1269;24154;-71
2024/02/12 00:24:19;;;;;;;1.20;0.80;;;;;;;8.34;91.65;94748.87;108861;1272;23847;-72
2024/02/12 00:26:51;;;;;;;1.40;1.00;;;;;;;8.33;91.52;94748.47;108884;1272;22698;-72
2024/02/12 00:29:24;;;;;;;1.50;0.80;;;;;;;8.29;91.47;94753.84;108840;1265;22509;-72
2024/02/12 00:31:58;;;;;;;0.80;0.70;;;;;;;8.31;91.07;94757.55;108904;1269;22588;-72
2024/02/12 00:34:33;;;;;;;1.80;1.10;;;;;;;8.33;90.71;94755.23;108883;1263;22514;-72
2024/02/12 00:37:08;;;;;;;1.60;1.10;;;;;;;8.32;90.61;94760.63;108933;1272;22626;-72
2024/02/12 00:39:40;;;;;;;1.30;0.80;;;;;;;8.29;90.58;94763.61;108838;1269;22537;-72
2024/02/12 00:42:14;;;;;;;1.40;0.70;;;;;;;8.27;90.43;94759.70;108757;1272;22514;-72
2024/02/12 00:44:48;;;;;;;1.00;0.70;;;;;;;8.31;90.16;94760.50;108843;1272;22529;-72
2024/02/12 00:47:19;;;;;;;0.90;0.60;;;;;;;8.29;90.16;94766.09;108839;1272;23858;-72
2024/02/12 00:49:53;;;;;;;0.50;0.50;;;;;;;8.27;89.88;94769.89;108859;1267;22540;-72
2024/02/12 00:52:30;;;;;;;0.70;0.40;;;;;;;8.26;89.77;94769.08;108880;1264;23864;-72
2024/02/12 00:55:03;;;;;;;1.10;0.50;;;;;;;8.26;89.80;94767.12;108858;1272;23361;-72
2024/02/12 00:57:37;;;;;;;1.50;0.90;;;;;;;8.24;89.77;94766.29;108908;1265;23745;-72
2024/02/12 01:00:16;;;;;;;0.70;0.50;;;;;;;8.23;89.65;94765.23;108858;1272;22639;-72
2024/02/12 01:02:51;;;;;;;3.00;1.60;;;;;;;8.22;89.59;94767.69;108862;1272;22528;-72
2024/02/12 01:05:26;;;;;;;3.80;2.30;;;;;;;8.18;89.68;94770.81;108852;1266;24285;-72
2024/02/12 01:08:00;;;;;;;2.50;1.60;;;;;;;8.14;90.04;94774.39;108851;1269;22563;-72
2024/02/12 01:10:32;;;;;;;3.30;2.40;;;;;;;8.10;90.07;94771.66;108916;1272;25638;-72
2024/02/12 01:13:06;;;;;;;3.20;2.20;;;;;;;8.04;90.26;94776.16;108857;1266;22508;-72
2024/02/12 01:15:40;;;;;;;2.20;1.60;;;;;;;7.99;90.40;94769.05;108966;1263;26460;-72
2024/02/12 01:18:12;;;;;;;2.80;1.80;;;;;;;7.97;90.53;94771.02;108890;1272;22530;-72
2024/02/12 01:20:45;;;;;;;3.60;1.90;;;;;;;7.96;90.78;94768.20;108852;1269;22521;-72
2024/02/12 01:23:24;;;;;;;2.90;1.80;;;;;;;7.94;90.76;94768.98;108856;1272;22676;-72
2024/02/12 01:25:55;;;;;;;2.70;1.60;;;;;;;7.91;90.91;94769.23;108833;1269;25319;-72
2024/02/12 01:28:31;;;;;;;3.10;2.00;;;;;;;7.85;90.89;94774.56;108895;1269;22524;-73
2024/02/12 01:31:03;;;;;;;3.00;1.70;;;;;;;7.79;91.07;94772.78;108862;1263;24167;-73
2024/02/12 01:33:36;;;;;;;3.00;1.70;;;;;;;7.72;91.13;94777.05;108879;1266;22517;-72
2024/02/12 01:36:09;;;;;;;2.90;1.80;;;;;;;7.68;91.32;94775.06;108859;1272;22507;-72
2024/02/12 01:38:45;;;;;;;2.30;1.60;;;;;;;7.61;91.54;94779.04;108881;1272;25409;-72
2024/02/12 01:41:19;;;;;;;2.20;1.70;;;;;;;7.58;91.74;94778.91;108909;1272;23986;-72
2024/02/12 01:43:51;;;;;;;2.60;1.60;;;;;;;7.54;91.71;94781.54;108827;1272;22537;-73
2024/02/12 01:46:22;;;;;;;3.80;1.60;;;;;;;7.50;91.91;94778.86;108817;1269;22533;-73
2024/02/12 01:48:54;;;;;;;1.80;1.30;;;;;;;7.50;92.02;94781.51;108890;1272;22532;-72
2024/02/12 01:51:26;;;;;;;2.40;1.20;;;;;;;7.50;91.99;94778.92;108867;1272;22523;-72
2024/02/12 01:54:02;;;;;;;2.20;1.10;;;;;;;7.49;91.91;94781.00;108847;1272;25610;-72
2024/02/12 01:56:35;;;;;;;1.80;1.30;;;;;;;7.48;91.94;94779.94;108962;1269;23814;-72
2024/02/12 01:59:18;;;;;;;3.30;1.30;;;;;;;7.45;91.96;94781.31;108856;1272;25417;-72
2024/02/12 02:01:52;;;;;;;1.60;0.90;;;;;;;7.40;91.83;94786.59;108815;1269;22521;-72
2024/02/12 02:04:26;;;;;;;1.80;1.00;;;;;;;7.37;91.86;94788.75;108908;1270;22567;-73
2024/02/12 02:06:57;;;;;;;0.70;0.60;;;;;;;7.34;91.88;94786.82;108886;1272;22548;-72
2024/02/12 02:09:29;;;;;;;0.90;0.80;;;;;;;7.32;91.88;94793.83;108881;1272;22627;-72
2024/02/12 02:12:13;;;;;;;1.10;0.60;;;;;;;7.28;91.99;94792.96;108832;1272;29558;-72
2024/02/12 02:14:46;;;;;;;0.90;0.60;;;;;;;7.26;92.12;94791.88;108901;1272;22685;-73
2024/02/12 02:17:20;;;;;;;0.80;0.60;;;;;;;7.24;92.18;94795.71;108924;1255;23138;-73
2024/02/12 02:19:53;;;;;;;1.20;0.50;;;;;;;7.20;92.14;94802.02;108895;1272;22781;-72
2024/02/12 02:22:24;;;;;;;0.80;0.50;;;;;;;7.17;92.16;94804.83;108881;1272;22517;-72
2024/02/12 02:24:57;;;;;;;1.90;0.50;;;;;;;7.13;92.27;94807.85;108829;1272;22567;-72
2024/02/12 02:27:27;;;;;;;0.90;0.30;;;;;;;7.11;92.39;94810.91;108895;1269;25306;-73
2024/02/12 02:29:58;;;;;;;0.60;0.30;;;;;;;7.09;92.50;94814.02;108907;1269;24240;-72
2024/02/12 02:32:31;;;;;;;0.30;0.30;;;;;;;7.07;92.51;94818.52;108880;1272;24379;-72
2024/02/12 02:35:04;;;;;;;0.50;0.40;;;;;;;7.06;92.46;94814.85;108911;1272;22521;-73
2024/02/12 02:37:36;;;;;;;0.50;0.10;;;;;;;7.02;92.44;94809.43;108860;1270;22457;-72
2024/02/12 02:40:13;;;;;;;0.50;0.20;;;;;;;6.98;92.42;94815.86;108919;1269;22521;-72
2024/02/12 02:42:49;;;;;;;0.30;0.30;;;;;;;6.91;92.54;94820.55;108884;1269;22589;-73
2024/02/12 02:45:21;;;;;;;0.90;0.20;;;;;;;6.87;92.87;94822.28;108947;1272;22547;-72
2024/02/12 02:47:58;;;;;;;0.40;0.30;;;;;;;6.88;92.89;94823.25;108918;1264;25401;-73
2024/02/12 02:50:30;;;;;;;1.40;0.30;;;;;;;6.88;92.97;94824.52;108725;1272;25424;-73
2024/02/12 02:53:04;;;;;;;0.40;0.30;;;;;;;6.89;93.05;94823.17;108823;1272;31894;-72
2024/02/12 02:55:35;;;;;;;0.50;0.30;;;;;;;6.86;92.85;94823.20;108870;1272;25007;-72
2024/02/12 02:58:09;;;;;;;0.40;0.20;;;;;;;6.83;92.92;94826.75;108832;1272;25468;-72
2024/02/12 03:00:45;;;;;;;0.50;0.40;;;;;;;6.79;92.91;94829.11;108831;1272;23236;-73
2024/02/12 03:03:16;;;;;;;0.20;0.10;;;;;;;6.76;92.83;94827.01;108739;1268;22857;-73
2024/02/12 03:05:51;;;;;;;0.80;0.30;;;;;;;6.76;93.01;94828.69;108786;1272;25482;-72
2024/02/12 03:08:24;;;;;;;0.10;0.10;;;;;;;6.77;92.94;94829.53;108788;1268;25230;-72
2024/02/12 03:10:56;;;;;;;0.30;0.30;;;;;;;6.75;93.00;94831.18;108803;1251;25265;-72
2024/02/12 03:13:27;;;;;;;0.30;0.20;;;;;;;6.73;92.98;94837.13;108815;1269;24260;-72
2024/02/12 03:16:03;;;;;;;0.80;0.40;;;;;;;6.72;93.02;94841.58;108786;1267;22592;-72
2024/02/12 03:18:34;;;;;;;0.50;0.20;;;;;;;6.70;92.95;94845.29;108870;1272;22558;-72
2024/02/12 03:21:09;;;;;;;1.10;0.50;;;;;;;6.68;93.08;94849.52;108818;1272;24189;-72
2024/02/12 03:23:43;;;;;;;0.70;0.30;;;;;;;6.62;93.23;94845.84;108774;1272;23001;-72
2024/02/12 03:26:13;;;;;;;0.10;0.10;;;;;;;6.62;93.12;94849.34;108850;1272;22500;-72
2024/02/12 03:28:49;;;;;;;0.80;0.30;;;;;;;6.59;93.13;94850.26;108825;1269;22528;-73
2024/02/12 03:31:20;;;;;;;0.20;0.20;;;;;;;6.58;93.01;94854.12;108764;1269;22591;-72
2024/02/12 03:33:53;;;;;;;1.30;0.10;;;;;;;6.58;92.89;94857.46;108759;1272;22532;-73
2024/02/12 03:36:24;;;;;;;0.30;0.20;;;;;;;6.60;92.86;94856.30;108775;1272;22524;-72
2024/02/12 03:38:58;;;;;;;0.30;0.20;;;;;;;6.61;92.73;94859.44;108795;1272;25281;-73
2024/02/12 03:41:31;;;;;;;0.20;0.10;;;;;;;6.62;92.62;94862.16;108776;1272;22991;-72
2024/02/12 03:44:09;;;;;;;0.40;0.20;;;;;;;6.63;92.69;94861.26;108730;1273;22524;-72
2024/02/12 03:46:46;;;;;;;0.30;0.20;;;;;;;6.66;92.35;94866.79;108748;1272;22521;-73
2024/02/12 04:00:48;;;;;;;0.20;0.10;;;;;;;6.55;92.37;94875.73;108809;1272;23976;-73
2024/02/12 04:03:21;;;;;;;0.40;0.10;;;;;;;6.54;92.04;94877.81;108871;1253;27027;-73
2024/02/12 04:05:53;;;;;;;0.20;0.20;;;;;;;6.53;92.17;94878.61;108866;1270;22646;-73
2024/02/12 04:08:23;;;;;;;0.20;0.20;;;;;;;6.53;92.04;94876.14;108926;1270;22524;-73
2024/02/12 04:10:56;;;;;;;0.80;0.30;;;;;;;6.51;91.79;94877.02;108878;1272;22529;-72
2024/02/12 04:13:29;;;;;;;0.40;0.30;;;;;;;6.50;91.89;94878.84;108873;1271;23275;-72
2024/02/12 04:16:06;;;;;;;0.50;0.20;;;;;;;6.46;91.85;94876.75;108885;1267;24911;-73
2024/02/12 04:18:40;;;;;;;0.50;0.20;;;;;;;6.43;91.94;94873.55;108936;1269;22525;-72
2024/02/12 04:21:16;;;;;;;0.50;0.30;;;;;;;6.40;91.68;94877.08;108883;1272;22525;-72
2024/02/12 04:23:50;;;;;;;0.80;0.60;;;;;;;6.36;91.79;94879.23;108874;1271;22530;-72
2024/02/12 04:26:22;;;;;;;0.50;0.30;;;;;;;6.29;91.78;94883.03;108918;1272;22510;-73
2024/02/12 04:28:54;;;;;;;0.80;0.40;;;;;;;6.23;91.78;94890.99;108894;1270;22595;-72
2024/02/12 04:31:27;;;;;;;0.40;0.40;;;;;;;6.19;91.89;94894.44;108901;1261;22525;-72
2024/02/12 04:34:07;;;;;;;0.70;0.30;;;;;;;6.18;91.90;94897.25;108908;1272;22517;-72
2024/02/12 04:36:44;;;;;;;0.70;0.30;;;;;;;6.21;92.04;94899.79;108871;1270;22585;-72
2024/02/12 04:39:22;;;;;;;0.50;0.30;;;;;;;6.19;92.01;94898.39;108822;1269;25293;-72
2024/02/12 04:41:54;;;;;;;0.50;0.50;;;;;;;6.20;92.10;94901.38;108863;1272;22524;-72
2024/02/12 04:44:28;;;;;;;1.00;0.50;;;;;;;6.20;92.02;94899.91;108936;1272;22528;-72
2024/02/12 04:47:00;;;;;;;0.60;0.30;;;;;;;6.23;92.16;94900.37;108857;1272;23091;-72
2024/02/12 04:49:36;;;;;;;0.20;0.20;;;;;;;6.26;92.13;94903.78;108799;1272;22539;-73
2024/02/12 04:52:08;;;;;;;0.40;0.30;;;;;;;6.31;92.12;94902.05;108775;1272;27151;-73
2024/02/12 04:54:40;;;;;;;0.40;0.30;;;;;;;6.37;92.17;94902.55;108744;1264;22769;-72
2024/02/12 04:57:14;;;;;;;0.40;0.30;;;;;;;6.40;92.05;94901.79;108752;1272;22534;-72
2024/02/12 04:59:45;;;;;;;0.70;0.30;;;;;;;6.39;91.73;94900.11;108740;1272;22520;-72
2024/02/12 05:02:17;;;;;;;0.40;0.20;;;;;;;6.38;91.90;94901.29;108755;1272;23787;-72
2024/02/12 05:04:51;;;;;;;0.70;0.40;;;;;;;6.37;91.66;94904.31;108787;1270;23019;-72
2024/02/12 05:07:26;;;;;;;0.90;0.50;;;;;;;6.35;91.63;94904.82;108803;1272;22653;-72
2024/02/12 05:10:00;;;;;;;1.50;0.50;;;;;;;6.28;91.47;94903.85;108890;1266;23188;-72
2024/02/12 05:12:39;;;;;;;0.60;0.40;;;;;;;6.20;91.57;94903.33;108772;1266;24225;-73
2024/02/12 05:15:12;;;;;;;0.60;0.40;;;;;;;6.15;91.79;94902.45;108861;1267;24327;-72
2024/02/12 05:17:55;;;;;;;1.10;0.50;;;;;;;6.12;91.78;94904.31;108874;1272;23887;-72
2024/02/12 05:23:16;;;;;;;0.90;0.50;;;;;;;6.05;91.71;94907.38;108779;1272;22789;-72
2024/02/12 05:25:47;;;;;;;1.00;0.50;;;;;;;6.03;91.84;94914.10;108812;1272;22995;-73
2024/02/12 05:28:22;;;;;;;1.00;0.50;;;;;;;6.00;91.71;94919.57;108848;1272;22515;-72
2024/02/12 05:30:54;;;;;;;0.60;0.50;;;;;;;5.95;91.69;94921.96;108856;1253;23052;-72
2024/02/12 05:33:31;;;;;;;2.50;0.50;;;;;;;5.94;91.82;94926.79;108768;1272;24844;-72
2024/02/12 05:36:09;;;;;;;0.60;0.50;;;;;;;5.92;92.07;94930.91;108820;1272;24238;-72
2024/02/12 05:38:46;;;;;;;1.40;0.50;;;;;;;5.93;91.98;94939.09;108839;1272;22517;-72
2024/02/12 05:41:20;;;;;;;2.30;0.60;;;;;;;5.94;91.98;94938.45;108787;1267;22548;-73
2024/02/12 05:43:55;;;;;;;0.50;0.50;;;;;;;5.92;92.05;94944.95;108782;1272;25601;-72
2024/02/12 05:46:27;;;;;;;0.60;0.40;;;;;;;5.94;92.13;94950.55;108835;1272;22518;-72
2024/02/12 05:49:00;;;;;;;0.50;0.40;;;;;;;5.95;91.96;94949.90;108810;1272;22579;-72
2024/02/12 05:51:34;;;;;;;1.40;0.70;;;;;;;5.96;92.03;94953.27;108832;1272;22523;-72
2024/02/12 06:06:02;;;;;;;0.60;0.50;;;;;;;6.32;91.40;94970.25;106152;1295;557832;-72
2024/02/12 06:08:34;;;;;;;1.60;1.00;;;;;;;6.36;91.31;94976.81;107555;1285;181080;-72
2024/02/12 06:22:27;;;;;;;1.00;0.60;;;;;;;6.61;90.95;94979.09;105157;1313;557790;-72
2024/02/12 06:24:58;;;;;;;0.80;0.60;;;;;;;6.56;90.79;94983.77;107534;1280;171499;-72
2024/02/12 06:27:29;;;;;;;1.00;0.80;;;;;;;6.50;90.93;94989.35;107788;1285;22544;-72
2024/02/12 06:30:00;;;;;;;0.90;0.80;;;;;;;6.44;90.87;94992.25;107759;1285;22536;-72
2024/02/12 06:32:32;;;;;;;1.60;1.00;;;;;;;6.32;90.91;94992.63;107896;1280;22537;-71
2024/02/12 06:35:03;;;;;;;1.10;0.90;;;;;;;6.24;91.16;94995.91;107924;1283;22962;-72
2024/02/12 06:37:34;;;;;;;1.60;1.30;;;;;;;6.16;91.20;95001.98;108085;1278;22527;-72
2024/02/12 06:40:07;;;;;;;2.20;1.50;;;;;;;6.12;91.32;95001.91;108161;1273;24315;-72
2024/02/12 06:42:38;;;;;;;1.70;1.20;;;;;;;6.08;91.48;95003.03;108239;1279;22542;-72
2024/02/12 06:45:11;;;;;;;2.60;1.40;;;;;;;6.07;91.59;95005.31;108176;1279;23821;-72
2024/02/12 06:47:42;;;;;;;2.50;1.40;;;;;;;6.06;91.74;95010.96;108237;1273;25336;-72
2024/02/12 06:50:16;;;;;;;1.60;1.10;;;;;;;6.05;91.78;95010.91;108190;1281;22541;-72
2024/02/12 06:52:48;;;;;;;1.70;1.20;;;;;;;6.04;91.78;95012.34;108048;1273;22557;-72
2024/02/12 06:55:21;;;;;;;2.10;1.40;;;;;;;6.03;91.79;95010.95;108050;1282;22676;-73
2024/02/12 06:57:53;;;;;;;3.00;1.60;;;;;;;6.02;91.92;95015.70;108202;1281;22550;-73
2024/02/12 07:00:24;;;;;;;2.70;1.50;;;;;;;5.99;91.90;95017.54;108114;1281;22554;-72
2024/02/12 07:02:55;;;;;;;2.20;1.40;;;;;;;5.98;91.82;95019.81;108162;1281;22545;-72
2024/02/12 07:05:26;;;;;;;1.80;1.50;;;;;;;5.96;91.83;95018.86;108153;1279;23498;-72
2024/02/12 07:07:58;;;;;;;1.90;1.40;;;;;;;5.93;91.88;95023.52;108158;1279;22612;-73
2024/02/12 07:10:29;;;;;;;2.00;1.20;;;;;;;5.93;91.98;95026.01;108225;1271;22573;-72
2024/02/12 07:13:04;;;;;;;2.50;1.70;;;;;;;5.93;92.04;95029.48;108113;1273;26495;-73
2024/02/12 07:15:36;;;;;;;1.90;1.20;;;;;;;5.93;91.98;95031.05;108226;1281;23016;-72
2024/02/12 07:18:08;;;;;;;1.30;1.20;;;;;;;5.94;92.06;95024.94;108186;1279;23036;-73
2024/02/12 07:20:40;;;;;;;1.40;0.90;;;;;;;5.93;92.14;95028.33;108197;1281;22599;-73
2024/02/12 07:23:11;;;;;;;2.20;1.20;;;;;;;5.94;92.06;95028.93;108118;1275;22579;-73
2024/02/12 07:25:44;;;;;;;1.20;0.80;;;;;;;5.97;92.18;95028.46;108056;1281;22553;-73
2024/02/12 07:28:17;;;;;;;2.50;1.40;;;;;;;5.99;92.26;95027.00;108049;1279;23446;-73
2024/02/12 07:30:49;;;;;;;3.30;1.90;;;;;;;6.01;92.21;95024.92;108047;1282;22527;-72
2024/02/12 07:33:20;;;;;;;3.60;1.70;;;;;;;6.03;92.13;95028.41;108005;1277;25414;-73
2024/02/12 07:35:52;;;;;;;2.40;1.60;;;;;;;6.06;92.00;95026.90;108097;1282;22540;-73
2024/02/12 07:38:23;;;;;;;2.40;1.70;;;;;;;6.09;91.99;95029.27;108158;1281;22649;-73
2024/02/12 07:40:58;;;;;;;3.10;1.80;;;;;;;6.14;92.06;95028.29;108171;1277;22628;-72
2024/02/12 07:43:30;;;;;;;2.80;1.60;;;;;;;6.14;92.04;95028.09;108123;1277;24777;-72
2024/02/12 07:46:01;;;;;;;2.00;1.70;;;;;;;6.14;92.00;95029.61;108166;1281;24349;-72
2024/02/12 07:48:32;;;;;;;2.70;1.80;;;;;;;6.13;92.12;95033.41;108113;1282;25252;-72
2024/02/12 07:51:04;;;;;;;2.30;1.60;;;;;;;6.19;92.10;95035.05;108127;1276;23982;-73
2024/02/12 07:53:35;;;;;;;2.70;1.40;;;;;;;6.22;92.07;95035.43;108136;1276;23717;-72
2024/02/12 07:56:08;;;;;;;3.30;1.60;;;;;;;6.26;92.09;95038.47;108110;1279;22545;-72
2024/02/12 07:58:40;;;;;;;3.90;2.20;;;;;;;6.30;92.14;95036.08;108493;1274;24292;-72
2024/02/12 08:01:11;;;;;;;2.70;1.50;;;;;;;6.35;92.10;95038.95;108382;1278;22538;-72
2024/02/12 08:03:43;;;;;;;3.30;1.80;;;;;;;6.40;92.11;95040.02;108357;1278;22551;-72
2024/02/12 08:06:15;;;;;;;2.80;1.80;;;;;;;6.44;92.19;95039.79;108387;1277;22563;-72
2024/02/12 08:08:47;;;;;;;6.70;2.90;;;;;;;6.49;92.05;95041.91;108415;1277;25477;-72
2024/02/12 08:11:20;;;;;;;3.30;1.80;;;;;;;6.54;92.11;95046.77;108380;1278;22528;-72
2024/02/12 08:13:51;;;;;;;3.30;2.10;;;;;;;6.60;92.20;95048.20;108289;1274;26483;-72
2024/02/12 08:16:22;;;;;;;2.90;1.80;;;;;;;6.63;91.96;95050.68;108374;1270;22535;-73
2024/02/12 08:18:53;;;;;;;3.70;2.00;;;;;;;6.70;92.27;95052.95;108482;1270;22568;-72
2024/02/12 08:21:24;;;;;;;3.40;1.90;;;;;;;6.78;92.05;95053.67;108507;1271;23994;-73
2024/02/12 08:23:56;;;;;;;2.90;2.20;;;;;;;6.83;91.93;95055.71;108502;1278;22542;-72
2024/02/12 08:26:26;;;;;;;4.00;1.50;;;;;;;6.89;91.74;95055.34;108537;1277;22583;-72
2024/02/12 08:28:58;;;;;;;2.00;1.40;;;;;;;6.89;91.70;95056.98;108366;1270;23868;-72
2024/02/12 08:31:29;;;;;;;2.70;1.50;;;;;;;6.90;91.56;95057.17;108473;1266;22562;-72
2024/02/12 08:34:01;;;;;;;2.30;1.70;;;;;;;6.93;91.53;95062.09;108407;1270;23316;-72
2024/02/12 08:36:33;;;;;;;2.40;1.90;;;;;;;6.97;91.55;95060.89;108235;1273;24206;-72
2024/02/12 08:39:05;;;;;;;2.50;1.80;;;;;;;6.99;91.33;95062.16;108362;1271;24205;-72
2024/02/12 08:41:37;;;;;;;1.80;1.30;;;;;;;7.07;91.46;95061.98;108502;1277;22540;-72
2024/02/12 08:44:08;;;;;;;1.90;1.00;;;;;;;7.10;91.08;95062.44;108484;1277;22582;-72
2024/02/12 08:46:39;;;;;;;2.20;1.30;;;;;;;7.13;90.77;95064.20;108473;1278;22784;-72
2024/02/12 08:49:11;;;;;;;1.80;1.40;;;;;;;7.19;90.64;95063.25;108468;1270;22613;-72
2024/02/12 08:51:43;;;;;;;2.10;1.70;;;;;;;7.26;90.67;95067.81;108349;1270;22644;-72
2024/02/12 08:54:15;;;;;;;4.40;2.30;;;;;;;7.32;90.43;95073.39;108439;1269;22536;-71
2024/02/12 08:56:46;;;;;;;1.70;1.60;;;;;;;7.37;90.35;95075.06;108410;1277;22639;-72
2024/02/12 08:59:19;;;;;;;2.30;1.80;;;;;;;7.47;90.42;95077.02;108381;1270;22532;-72
2024/02/12 09:01:50;;;;;;;3.90;2.20;;;;;;;7.57;90.20;95081.09;108407;1273;22538;-72
2024/02/12 09:04:21;;;;;;;2.60;2.10;;;;;;;7.69;90.03;95080.67;108376;1273;25444;-72
2024/02/12 09:06:52;;;;;;;2.90;1.80;;;;;;;7.81;90.11;95082.70;108371;1277;22527;-73
2024/02/12 09:09:23;;;;;;;3.40;2.10;;;;;;;7.94;89.96;95086.73;108542;1273;22581;-72
2024/02/12 09:11:55;;;;;;;13.40;6.30;;;;;;;8.08;89.70;95093.30;108469;1269;25261;-72
2024/02/12 09:14:26;;;;;;;6.20;3.90;;;;;;;8.16;89.61;95094.19;108407;1277;24250;-74
2024/02/12 09:16:58;;;;;;;5.70;3.20;;;;;;;8.35;89.59;95098.25;108418;1276;24260;-71
2024/02/12 09:19:29;;;;;;;5.10;3.00;;;;;;;8.46;89.08;95096.64;108417;1271;25341;-71
2024/02/12 09:22:03;;;;;;;4.80;2.80;;;;;;;8.59;88.77;95092.17;108469;1277;22537;-71
2024/02/12 09:24:36;;;;;;;3.20;2.10;;;;;;;8.75;88.59;95092.41;108343;1270;23050;-71
2024/02/12 09:27:08;;;;;;;2.60;1.80;;;;;;;8.94;88.51;95093.16;108435;1270;22527;-72
2024/02/12 09:29:40;;;;;;;2.60;0.90;;;;;;;9.04;88.13;95096.66;108401;1277;22561;-72
2024/02/12 09:32:14;;;;;;;2.20;1.20;;;;;;;9.12;87.55;95101.88;108533;1277;22533;-72
2024/02/12 09:34:45;;;;;;;2.00;1.30;;;;;;;9.20;87.55;95103.46;108503;1276;25469;-72
2024/02/12 09:37:18;;;;;;;3.00;2.60;;;;;;;9.32;87.25;95104.45;108537;1277;22575;-72
2024/02/12 09:39:50;;;;;;;1.70;1.60;;;;;;;9.37;86.79;95111.09;108470;1277;22544;-71
2024/02/12 09:42:23;;;;;;;1.90;1.70;;;;;;;9.33;85.99;95115.13;108421;1275;22624;-71
2024/02/12 09:45:00;;;;;;;1.90;1.50;;;;;;;9.27;85.68;95116.28;108453;1277;22544;-71
2024/02/12 09:47:32;;;;;;;2.10;1.40;;;;;;;9.15;85.03;95121.36;108499;1277;25271;-71
2024/02/12 09:50:07;;;;;;;1.70;1.50;;;;;;;9.13;85.07;95126.85;108421;1276;22550;-72
2024/02/12 09:52:39;;;;;;;2.50;0.90;;;;;;;9.16;84.78;95125.30;108541;1277;24505;-71
2024/02/12 09:55:12;;;;;;;1.20;1.00;;;;;;;8.99;82.63;95125.65;108511;1277;24301;-71
2024/02/12 09:57:44;;;;;;;0.90;0.70;;;;;;;8.87;83.18;95131.66;108522;1276;22535;-71
2024/02/12 10:00:19;;;;;;;1.80;1.20;;;;;;;8.87;83.43;95129.48;108505;1269;25101;-71
2024/02/12 10:02:55;;;;;;;1.90;1.60;;;;;;;8.80;83.23;95130.55;108502;1274;22550;-71
2024/02/12 10:05:29;;;;;;;2.40;1.70;;;;;;;8.76;83.36;95130.94;108513;1277;24064;-72
2024/02/12 10:08:01;;;;;;;1.40;0.90;;;;;;;8.70;83.41;95128.93;108493;1275;25355;-72
2024/02/12 10:10:35;;;;;;;2.50;1.30;;;;;;;8.60;82.53;95127.14;108535;1275;22536;-71
2024/02/12 10:13:09;;;;;;;2.60;1.60;;;;;;;8.48;82.18;95132.48;108482;1276;22551;-72
2024/02/12 10:15:40;;;;;;;1.90;1.10;;;;;;;8.47;82.73;95130.16;108527;1270;22534;-72
2024/02/12 10:18:16;;;;;;;1.60;1.40;;;;;;;8.43;82.21;95132.84;108501;1270;22565;-72
2024/02/12 10:20:48;;;;;;;2.90;1.60;;;;;;;8.38;82.57;95129.52;108741;1269;24867;-72
2024/02/12 10:23:20;;;;;;;1.90;1.20;;;;;;;8.42;82.74;95133.02;108682;1267;22535;-72
2024/02/12 10:25:54;;;;;;;2.40;1.60;;;;;;;8.41;82.62;95131.08;108675;1273;24276;-72
2024/02/12 10:28:25;;;;;;;1.70;1.30;;;;;;;8.36;82.37;95130.73;108679;1270;22531;-72
2024/02/12 10:30:56;;;;;;;2.70;1.50;;;;;;;8.36;82.53;95130.67;108680;1269;22587;-72
2024/02/12 10:33:28;;;;;;;2.00;1.50;;;;;;;8.39;82.62;95132.02;108550;1267;22524;-72
2024/02/12 10:36:03;;;;;;;3.00;1.80;;;;;;;8.43;82.62;95133.23;108790;1273;22636;-72
2024/02/12 10:38:40;;;;;;;3.00;1.40;;;;;;;8.43;82.33;95131.77;108703;1266;22654;-72
2024/02/12 10:41:21;;;;;;;3.30;1.60;;;;;;;8.41;81.80;95131.23;108735;1273;25351;-72
2024/02/12 10:43:52;;;;;;;3.30;1.30;;;;;;;8.42;81.73;95131.11;108725;1266;22531;-72
2024/02/12 10:46:24;;;;;;;1.10;0.80;;;;;;;8.39;81.12;95135.29;108740;1266;22521;-72
2024/02/12 10:48:57;;;;;;;1.60;1.10;;;;;;;8.36;80.82;95131.80;108726;1273;22550;-72
2024/02/12 10:51:30;;;;;;;2.10;1.00;;;;;;;8.36;80.62;95132.05;108607;1273;24218;-73
2024/02/12 10:54:02;;;;;;;1.20;1.10;;;;;;;8.29;80.33;95138.20;109469;1266;22521;-72
2024/02/12 10:56:34;;;;;;;1.50;1.30;;;;;;;8.23;80.22;95140.17;108603;1267;22560;-72
2024/02/12 10:59:05;;;;;;;1.90;1.40;;;;;;;8.23;80.59;95141.29;108707;1273;22654;-72
2024/02/12 11:01:39;;;;;;;2.40;0.90;;;;;;;8.22;80.69;95141.85;108712;1273;22520;-72
2024/02/12 11:04:15;;;;;;;2.70;1.60;;;;;;;8.18;80.24;95140.30;108703;1273;22556;-72
2024/02/12 11:06:50;;;;;;;2.60;1.40;;;;;;;8.14;80.62;95139.69;108687;1266;22549;-72
2024/02/12 11:09:30;;;;;;;2.70;1.60;;;;;;;8.11;80.74;95142.09;108719;1273;25314;-72
2024/02/12 11:12:03;;;;;;;2.70;1.40;;;;;;;8.08;80.93;95133.71;108661;1273;22589;-73
2024/02/12 11:14:36;;;;;;;2.20;1.50;;;;;;;8.08;81.01;95138.47;108722;1267;25264;-72
2024/02/12 11:17:19;;;;;;;1.60;1.20;;;;;;;8.11;81.18;95140.36;108708;1273;23207;-72
2024/02/12 11:19:52;;;;;;;2.70;1.80;;;;;;;8.16;81.37;95144.71;108784;1273;23849;-72
2024/02/12 11:22:31;;;;;;;1.90;1.30;;;;;;;8.23;81.43;95141.82;108741;1267;24387;-72
2024/02/12 11:25:03;;;;;;;2.10;1.30;;;;;;;8.26;81.16;95139.11;108777;1273;41611;-72
2024/02/12 11:27:41;;;;;;;1.80;1.40;;;;;;;8.28;80.85;95136.60;108746;1266;22537;-73
2024/02/12 11:30:16;;;;;;;1.70;1.50;;;;;;;8.31;81.08;95139.63;108813;1265;22647;-72
2024/02/12 11:32:48;;;;;;;2.80;1.40;;;;;;;8.36;80.83;95140.34;108751;1273;25286;-73
2024/02/12 11:35:20;;;;;;;1.80;1.50;;;;;;;8.40;80.84;95146.02;108702;1266;22533;-72
2024/02/12 11:37:59;;;;;;;1.80;1.20;;;;;;;8.45;81.05;95146.38;108730;1273;22546;-73
2024/02/12 11:40:30;;;;;;;2.50;1.40;;;;;;;8.43;80.77;95142.81;108790;1270;22530;-72
2024/02/12 11:43:02;;;;;;;1.80;1.20;;;;;;;8.37;80.33;95148.14;108775;1273;22547;-73
2024/02/12 11:45:35;;;;;;;1.60;1.20;;;;;;;8.26;80.36;95149.14;108765;1272;25488;-73
2024/02/12 11:48:10;;;;;;;2.40;1.50;;;;;;;8.19;80.23;95155.58;108804;1273;22648;-72
2024/02/12 11:50:41;;;;;;;2.80;1.80;;;;;;;8.14;80.57;95156.05;108753;1273;25524;-73
2024/02/12 11:53:12;;;;;;;2.70;1.80;;;;;;;8.11;80.65;95158.23;108763;1273;22534;-72
2024/02/12 11:55:44;;;;;;;2.30;1.70;;;;;;;8.08;80.87;95160.27;108772;1265;22525;-72
2024/02/12 11:58:17;;;;;;;2.50;1.70;;;;;;;8.10;81.16;95157.95;108757;1266;22536;-72
2024/02/12 12:00:48;;;;;;;2.00;1.50;;;;;;;8.09;80.89;95155.33;108712;1270;22608;-72
2024/02/12 12:03:20;;;;;;;2.60;1.70;;;;;;;8.04;81.05;95153.16;108689;1266;22573;-73
2024/02/12 12:05:52;;;;;;;1.60;1.40;;;;;;;8.02;81.14;95154.95;108712;1273;22527;-73
2024/02/12 12:08:26;;;;;;;1.80;1.50;;;;;;;8.02;81.17;95156.11;108637;1272;22618;-73
2024/02/12 12:11:06;;;;;;;3.70;2.30;;;;;;;8.00;81.32;95161.58;108701;1273;22719;-72
2024/02/12 12:13:37;;;;;;;1.80;1.40;;;;;;;7.98;81.26;95161.94;108640;1273;22578;-72
2024/02/12 12:16:10;;;;;;;4.00;2.00;;;;;;;7.95;81.37;95165.92;108664;1273;25411;-72
2024/02/12 12:18:41;;;;;;;2.30;1.90;;;;;;;7.95;81.41;95162.48;108657;1273;22530;-73
2024/02/12 12:21:14;;;;;;;3.10;2.00;;;;;;;7.96;81.56;95166.48;108680;1273;22606;-72
2024/02/12 12:23:45;;;;;;;3.90;2.00;;;;;;;7.94;81.36;95163.77;108614;1271;23237;-72
2024/02/12 12:26:17;;;;;;;3.40;2.00;;;;;;;7.96;81.46;95163.73;108588;1266;25256;-72
2024/02/12 12:28:48;;;;;;;9.60;7.10;;;;;;;7.98;81.49;95162.31;108665;1265;22584;-72
2024/02/12 12:31:20;;;;;;;5.70;4.30;;;;;;;8.00;81.57;95163.70;108684;1267;22658;-72
2024/02/12 12:33:51;;;;;;;2.90;1.70;;;;;;;8.00;81.55;95163.85;108680;1272;22540;-72
2024/02/12 12:36:23;;;;;;;2.70;1.70;;;;;;;7.99;81.58;95166.45;108675;1273;22585;-72
2024/02/12 12:38:54;;;;;;;2.30;2.10;;;;;;;7.98;81.52;95164.64;108645;1267;24275;-72